createdAt,value
2023-05-03T00:00:23.788Z,100179.00
2023-05-03T00:02:54.023Z,100168.47
2023-05-03T00:05:21.543Z,100169.53
2023-05-03T00:07:49.551Z,100165.97
2023-05-03T00:10:17.255Z,100169.75
2023-05-03T00:12:44.730Z,100175.75
2023-05-03T00:15:12.143Z,100171.41
2023-05-03T00:17:39.931Z,100165.22
2023-05-03T00:20:08.143Z,100169.53
2023-05-03T00:22:36.550Z,100170.34
2023-05-03T00:25:04.843Z,100172.16
2023-05-03T00:27:32.406Z,100170.69
2023-05-03T00:30:00.023Z,100172.22
2023-05-03T00:32:28.441Z,100167.78
2023-05-03T00:34:57.169Z,100163.63
2023-05-03T00:37:25.458Z,100166.13
2023-05-03T00:39:53.675Z,100165.31
2023-05-03T00:42:21.086Z,100164.44
2023-05-03T00:44:48.439Z,100173.91
2023-05-03T00:47:16.847Z,100170.41
2023-05-03T00:49:44.923Z,100176.06
2023-05-03T00:52:12.413Z,100173.22
2023-05-03T00:54:40.408Z,100187.19
2023-05-03T00:57:07.912Z,100181.50
2023-05-03T00:59:35.389Z,100188.19
2023-05-03T01:02:03.241Z,100184.56
2023-05-03T01:04:30.845Z,100195.16
2023-05-03T01:07:20.017Z,100195.03
2023-05-03T01:10:00.945Z,100195.88
2023-05-03T01:12:34.318Z,100200.34
2023-05-03T01:15:20.749Z,100194.22
2023-05-03T01:17:51.762Z,100202.81
2023-05-03T01:20:24.837Z,100201.25
2023-05-03T01:22:57.956Z,100195.03
2023-05-03T01:25:29.156Z,100201.97
2023-05-03T01:27:56.580Z,100195.31
2023-05-03T01:30:27.065Z,100200.44
2023-05-03T01:33:16.176Z,100198.41
2023-05-03T01:35:56.156Z,100198.72
2023-05-03T01:38:23.953Z,100194.34
2023-05-03T01:40:53.639Z,100190.88
2023-05-03T01:43:21.501Z,100193.28
2023-05-03T01:45:49.869Z,100191.78
2023-05-03T01:48:18.840Z,100189.97
2023-05-03T01:50:46.913Z,100190.06
2023-05-03T01:53:14.797Z,100187.50
2023-05-03T01:55:43.318Z,100182.16
2023-05-03T01:58:12.634Z,100181.09
2023-05-03T02:00:40.458Z,100181.16
2023-05-03T02:03:08.367Z,100175.91
2023-05-03T02:05:36.124Z,100185.44
2023-05-03T02:08:03.576Z,100176.63
2023-05-03T02:10:31.281Z,100176.53
2023-05-03T02:12:58.863Z,100181.97
2023-05-03T02:15:26.421Z,100175.22
2023-05-03T02:17:54.361Z,100180.22
2023-05-03T02:20:22.091Z,100170.72
2023-05-03T02:22:49.502Z,100170.66
2023-05-03T02:25:17.317Z,100171.59
2023-05-03T02:27:45.514Z,100163.63
2023-05-03T02:30:13.517Z,100171.53
2023-05-03T02:32:42.348Z,100160.13
2023-05-03T02:35:10.615Z,100159.53
2023-05-03T02:37:38.089Z,100161.84
2023-05-03T02:40:09.568Z,100151.41
2023-05-03T02:42:37.204Z,100159.34
2023-05-03T02:45:05.707Z,100157.78
2023-05-03T02:47:33.552Z,100152.69
2023-05-03T02:50:01.338Z,100151.66
2023-05-03T02:52:31.067Z,100150.81
2023-05-03T02:54:58.901Z,100153.44
2023-05-03T02:57:26.839Z,100149.53
2023-05-03T02:59:54.674Z,100152.16
2023-05-03T03:02:22.734Z,100149.47
2023-05-03T03:04:50.291Z,100153.09
2023-05-03T03:07:17.899Z,100157.91
2023-05-03T03:09:45.755Z,100150.69
2023-05-03T03:12:13.277Z,100154.28
2023-05-03T03:14:41.641Z,100144.81
2023-05-03T03:17:10.667Z,100139.38
2023-05-03T03:19:38.118Z,100145.63
2023-05-03T03:22:05.740Z,100151.41
2023-05-03T03:24:34.156Z,100147.78
2023-05-03T03:27:01.730Z,100154.16
2023-05-03T03:29:31.511Z,100152.34
2023-05-03T03:32:01.083Z,100161.12
2023-05-03T03:34:28.797Z,100162.97
2023-05-03T03:36:56.430Z,100160.34
2023-05-03T03:39:24.866Z,100153.34
2023-05-03T03:41:52.558Z,100155.09
2023-05-03T03:44:20.196Z,100153.28
2023-05-03T03:46:48.059Z,100157.91
2023-05-03T03:49:16.906Z,100156.78
2023-05-03T03:51:44.422Z,100157.72
2023-05-03T03:54:12.597Z,100167.31
2023-05-03T03:56:40.461Z,100165.56
2023-05-03T03:59:08.199Z,100172.81
2023-05-03T04:01:36.090Z,100172.59
2023-05-03T04:04:04.725Z,100175.44
2023-05-03T04:06:33.458Z,100175.38
2023-05-03T04:09:02.010Z,100185.09
2023-05-03T04:11:31.722Z,100184.56
2023-05-03T04:13:59.698Z,100184.25
2023-05-03T04:16:27.359Z,100183.28
2023-05-03T04:18:55.257Z,100196.28
2023-05-03T04:21:22.916Z,100197.19
2023-05-03T04:23:50.872Z,100203.13
2023-05-03T04:26:30.769Z,100205.22
2023-05-03T04:29:01.075Z,100200.50
2023-05-03T04:31:29.978Z,100196.37
2023-05-03T04:33:58.041Z,100204.91
2023-05-03T04:36:26.596Z,100206.09
2023-05-03T04:38:54.808Z,100210.19
2023-05-03T04:41:24.368Z,100218.84
2023-05-03T04:43:52.231Z,100216.41
2023-05-03T04:46:20.419Z,100220.66
2023-05-03T04:48:48.502Z,100217.09
2023-05-03T04:51:15.923Z,100220.66
2023-05-03T04:53:43.738Z,100222.41
2023-05-03T04:56:11.793Z,100224.16
2023-05-03T04:58:39.799Z,100231.78
2023-05-03T05:01:08.207Z,100234.31
2023-05-03T05:03:35.895Z,100235.28
2023-05-03T05:06:03.658Z,100235.34
2023-05-03T05:08:31.913Z,100237.31
2023-05-03T05:11:01.997Z,100238.84
2023-05-03T05:13:29.999Z,100236.75
2023-05-03T05:15:57.803Z,100240.94
2023-05-03T05:18:25.255Z,100241.16
2023-05-03T05:20:53.146Z,100236.50
2023-05-03T05:23:20.992Z,100242.56
2023-05-03T05:25:48.727Z,100241.59
2023-05-03T05:28:16.235Z,100240.56
2023-05-03T05:30:44.569Z,100237.66
2023-05-03T05:33:12.587Z,100246.38
2023-05-03T05:35:40.344Z,100246.22
2023-05-03T05:38:08.549Z,100252.28
2023-05-03T05:40:36.486Z,100250.19
2023-05-03T05:43:04.336Z,100254.66
2023-05-03T05:45:34.479Z,100250.16
2023-05-03T05:48:02.747Z,100249.94
2023-05-03T05:50:31.600Z,100252.62
2023-05-03T05:53:00.290Z,100258.06
2023-05-03T05:55:28.260Z,100250.75
2023-05-03T05:57:56.219Z,100254.41
2023-05-03T06:00:25.169Z,100262.88
2023-05-03T06:02:53.110Z,100264.84
2023-05-03T06:05:20.975Z,100259.62
2023-05-03T06:07:49.474Z,100266.53
2023-05-03T06:10:17.758Z,100272.97
2023-05-03T06:12:45.577Z,100282.56
2023-05-03T06:15:13.457Z,100274.75
2023-05-03T06:17:41.496Z,100297.25
2023-05-03T06:20:12.408Z,100286.84
2023-05-03T06:22:40.499Z,100285.78
2023-05-03T06:25:09.694Z,100293.19
2023-05-03T06:27:38.429Z,100291.50
2023-05-03T06:30:06.828Z,100294.50
2023-05-03T06:32:34.710Z,100296.31
2023-05-03T06:35:03.574Z,100302.97
2023-05-03T06:37:31.196Z,100309.88
2023-05-03T06:39:58.895Z,100306.13
2023-05-03T06:42:26.324Z,100322.69
2023-05-03T06:45:02.658Z,100320.25
2023-05-03T06:47:30.503Z,100313.53
2023-05-03T06:49:57.930Z,100308.97
2023-05-03T06:52:26.811Z,100314.87
2023-05-03T06:54:54.858Z,100318.37
2023-05-03T06:57:22.863Z,100316.59
2023-05-03T06:59:50.698Z,100318.97
2023-05-03T07:02:18.996Z,100311.06
2023-05-03T07:04:46.565Z,100311.50
2023-05-03T07:07:15.845Z,100312.81
2023-05-03T07:09:44.163Z,100312.63
2023-05-03T07:12:12.044Z,100318.72
2023-05-03T07:14:40.595Z,100318.81
2023-05-03T07:17:08.992Z,100320.00
2023-05-03T07:19:37.421Z,100316.31
2023-05-03T07:22:04.820Z,100312.66
2023-05-03T07:24:32.472Z,100317.19
2023-05-03T07:26:59.860Z,100310.25
2023-05-03T07:29:27.578Z,100313.06
2023-05-03T07:31:55.458Z,100318.56
2023-05-03T07:34:22.910Z,100310.72
2023-05-03T07:36:50.414Z,100308.22
2023-05-03T07:39:18.824Z,100311.50
2023-05-03T07:41:46.924Z,100315.47
2023-05-03T07:44:14.293Z,100324.56
2023-05-03T07:46:41.966Z,100315.66
2023-05-03T07:49:09.334Z,100308.91
2023-05-03T07:51:37.191Z,100306.53
2023-05-03T07:54:05.356Z,100311.31
2023-05-03T07:56:32.750Z,100312.19
2023-05-03T07:59:09.275Z,100315.25
2023-05-03T08:01:38.386Z,100314.75
2023-05-03T08:04:06.591Z,100316.69
2023-05-03T08:06:35.725Z,100321.56
2023-05-03T08:09:04.673Z,100316.78
2023-05-03T08:11:32.641Z,100317.41
2023-05-03T08:14:00.155Z,100324.03
2023-05-03T08:16:27.749Z,100322.34
2023-05-03T08:18:55.471Z,100325.91
2023-05-03T08:21:24.785Z,100327.31
2023-05-03T08:23:53.308Z,100325.03
2023-05-03T08:26:22.183Z,100324.59
2023-05-03T08:28:50.346Z,100327.25
2023-05-03T08:31:18.073Z,100323.25
2023-05-03T08:33:45.855Z,100321.41
2023-05-03T08:36:13.281Z,100326.44
2023-05-03T08:38:41.243Z,100319.94
2023-05-03T08:41:30.877Z,100327.06
2023-05-03T08:43:59.762Z,100328.41
2023-05-03T08:46:28.398Z,100326.44
2023-05-03T08:48:56.112Z,100334.97
2023-05-03T08:51:24.644Z,100332.84
2023-05-03T08:53:52.451Z,100331.94
2023-05-03T08:56:41.143Z,100335.03
2023-05-03T08:59:10.638Z,100335.50
2023-05-03T09:01:40.008Z,100336.13
2023-05-03T09:04:08.671Z,100330.44
2023-05-03T09:06:36.991Z,100334.41
2023-05-03T09:09:07.552Z,100330.09
2023-05-03T09:11:36.884Z,100327.16
2023-05-03T09:14:11.926Z,100331.87
2023-05-03T09:16:40.992Z,100331.63
2023-05-03T09:19:11.610Z,100331.03
2023-05-03T09:21:40.710Z,100334.47
2023-05-03T09:24:18.007Z,100333.53
2023-05-03T09:26:47.116Z,100336.78
2023-05-03T09:29:31.790Z,100339.06
2023-05-03T09:32:08.512Z,100336.78
2023-05-03T09:34:37.084Z,100340.47
2023-05-03T09:37:04.899Z,100337.47
2023-05-03T09:39:32.741Z,100336.97
2023-05-03T09:42:10.594Z,100333.34
2023-05-03T09:44:44.634Z,100329.59
2023-05-03T09:47:12.311Z,100334.12
2023-05-03T09:49:40.013Z,100326.06
2023-05-03T09:52:08.515Z,100323.94
2023-05-03T09:54:36.014Z,100323.03
2023-05-03T09:57:05.769Z,100332.06
2023-05-03T09:59:34.370Z,100330.19
2023-05-03T10:02:04.002Z,100331.16
2023-05-03T10:04:43.837Z,100326.94
2023-05-03T10:07:17.656Z,100319.13
2023-05-03T10:09:48.680Z,100321.56
2023-05-03T10:12:18.902Z,100316.94
2023-05-03T10:14:47.965Z,100317.31
2023-05-03T10:17:46.577Z,100318.69
2023-05-03T10:20:38.931Z,100317.69
2023-05-03T10:23:06.994Z,100320.59
2023-05-03T10:25:36.188Z,100318.41
2023-05-03T10:28:08.650Z,100325.22
2023-05-03T10:30:38.294Z,100318.63
2023-05-03T10:33:29.739Z,100315.91
2023-05-03T10:35:59.028Z,100314.56
2023-05-03T10:38:28.534Z,100316.41
2023-05-03T10:40:56.734Z,100318.31
2023-05-03T10:43:30.648Z,100312.03
2023-05-03T10:46:02.673Z,100307.47
2023-05-03T10:48:34.043Z,100301.22
2023-05-03T10:51:30.783Z,100294.16
2023-05-03T10:53:58.733Z,100302.41
2023-05-03T10:56:26.459Z,100300.03
2023-05-03T10:58:56.976Z,100293.59
2023-05-03T11:01:27.030Z,100299.34
2023-05-03T11:04:10.098Z,100299.34
2023-05-03T11:06:41.198Z,100308.09
2023-05-03T11:09:10.104Z,100300.75
2023-05-03T11:11:39.957Z,100297.00
2023-05-03T11:14:08.764Z,100300.31
2023-05-03T11:16:37.148Z,100299.31
2023-05-03T11:19:05.978Z,100296.25
2023-05-03T11:21:33.402Z,100293.28
2023-05-03T11:24:01.748Z,100302.72
2023-05-03T11:26:35.775Z,100302.41
2023-05-03T11:29:03.451Z,100308.91
2023-05-03T11:31:31.874Z,100308.88
2023-05-03T11:33:59.706Z,100305.56
2023-05-03T11:36:27.999Z,100302.28
2023-05-03T11:38:55.882Z,100300.25
2023-05-03T11:41:23.349Z,100302.66
2023-05-03T11:44:00.677Z,100298.16
2023-05-03T11:46:37.605Z,100305.03
2023-05-03T11:49:05.433Z,100297.56
2023-05-03T11:51:32.912Z,100299.75
2023-05-03T11:54:10.130Z,100302.28
2023-05-03T11:56:52.851Z,100296.62
2023-05-03T11:59:20.801Z,100308.19
2023-05-03T12:01:49.538Z,100295.06
2023-05-03T12:04:18.044Z,100300.31
2023-05-03T12:06:52.778Z,100305.34
2023-05-03T12:09:25.996Z,100303.66
2023-05-03T12:11:55.306Z,100303.38
2023-05-03T12:14:24.405Z,100296.91
2023-05-03T12:16:53.846Z,100294.22
2023-05-03T12:19:30.903Z,100295.56
2023-05-03T12:24:33.406Z,100300.78
2023-05-03T12:27:02.832Z,100299.41
2023-05-03T12:29:35.396Z,100287.75
2023-05-03T12:32:04.636Z,100290.94
2023-05-03T12:34:35.440Z,100287.41
2023-05-03T12:37:05.779Z,100281.31
2023-05-03T12:39:34.161Z,100282.72
2023-05-03T12:44:35.153Z,100285.75
2023-05-03T12:47:04.144Z,100287.38
2023-05-03T12:49:32.455Z,100283.28
2023-05-03T12:52:34.750Z,100269.16
2023-05-03T12:54:49.531Z,100271.19
2023-05-03T12:57:22.952Z,100268.38
2023-05-03T12:59:54.146Z,100271.28
2023-05-03T13:05:00.491Z,100276.03
2023-05-03T13:07:31.745Z,100268.81
2023-05-03T13:12:33.159Z,100265.38
2023-05-03T13:15:02.447Z,100268.44
2023-05-03T13:17:31.595Z,100264.13
2023-05-03T13:19:59.427Z,100263.84
2023-05-03T13:22:27.198Z,100263.87
2023-05-03T13:24:54.710Z,100266.88
2023-05-03T13:27:22.367Z,100258.13
2023-05-03T13:29:49.901Z,100257.97
2023-05-03T13:32:17.579Z,100256.81
2023-05-03T13:34:45.683Z,100258.31
2023-05-03T13:37:18.235Z,100253.00
2023-05-03T13:39:46.661Z,100255.56
2023-05-03T13:42:14.387Z,100249.38
2023-05-03T13:44:42.565Z,100247.88
2023-05-03T13:47:10.213Z,100248.75
2023-05-03T13:49:37.632Z,100251.13
2023-05-03T13:52:05.048Z,100248.13
2023-05-03T13:54:32.722Z,100248.81
2023-05-03T13:57:00.211Z,100245.88
2023-05-03T13:59:27.645Z,100238.69
2023-05-03T14:01:55.576Z,100244.25
2023-05-03T14:04:25.449Z,100241.78
2023-05-03T14:06:52.923Z,100234.38
2023-05-03T14:09:20.353Z,100241.84
2023-05-03T14:11:48.196Z,100237.84
2023-05-03T14:14:15.587Z,100237.41
2023-05-03T14:16:43.782Z,100238.84
2023-05-03T14:19:11.999Z,100236.97
2023-05-03T14:21:42.022Z,100239.25
2023-05-03T14:24:09.468Z,100233.91
2023-05-03T14:26:37.548Z,100229.75
2023-05-03T14:29:05.896Z,100230.91
2023-05-03T14:31:34.357Z,100233.41
2023-05-03T14:34:02.278Z,100227.56
2023-05-03T14:36:34.863Z,100237.81
2023-05-03T14:39:04.168Z,100235.28
2023-05-03T14:41:33.208Z,100230.00
2023-05-03T14:44:01.332Z,100231.56
2023-05-03T14:46:29.072Z,100234.38
2023-05-03T14:48:56.502Z,100229.78
2023-05-03T14:51:24.068Z,100232.31
2023-05-03T14:53:52.269Z,100235.62
2023-05-03T14:56:19.661Z,100235.72
2023-05-03T14:58:47.063Z,100233.97
2023-05-03T15:01:19.634Z,100234.72
2023-05-03T15:03:47.440Z,100245.88
2023-05-03T15:06:16.633Z,100235.19
2023-05-03T15:08:44.042Z,100232.63
2023-05-03T15:11:11.584Z,100239.22
2023-05-03T15:13:39.595Z,100237.66
2023-05-03T15:16:07.231Z,100243.81
2023-05-03T15:18:34.622Z,100240.03
2023-05-03T15:21:03.312Z,100243.38
2023-05-03T15:23:31.119Z,100233.87
2023-05-03T15:25:59.047Z,100235.50
2023-05-03T15:28:26.741Z,100235.06
2023-05-03T15:30:54.194Z,100238.41
2023-05-03T15:33:21.639Z,100234.50
2023-05-03T15:35:49.363Z,100233.44
2023-05-03T15:38:17.905Z,100241.75
2023-05-03T15:40:45.521Z,100233.56
2023-05-03T15:43:13.245Z,100236.13
2023-05-03T15:45:40.624Z,100242.94
2023-05-03T15:48:08.124Z,100241.88
2023-05-03T15:50:35.807Z,100253.19
2023-05-03T15:53:03.774Z,100241.31
2023-05-03T15:55:31.494Z,100252.06
2023-05-03T15:57:59.201Z,100243.59
2023-05-03T16:00:27.115Z,100244.75
2023-05-03T16:02:55.125Z,100244.88
2023-05-03T16:05:22.984Z,100248.09
2023-05-03T16:07:50.979Z,100255.53
2023-05-03T16:10:18.808Z,100255.47
2023-05-03T16:12:46.319Z,100251.22
2023-05-03T16:15:13.751Z,100260.44
2023-05-03T16:17:41.529Z,100261.56
2023-05-03T16:20:10.656Z,100265.72
2023-05-03T16:22:38.469Z,100257.69
2023-05-03T16:25:12.740Z,100260.16
2023-05-03T16:27:40.346Z,100252.09
2023-05-03T16:30:09.227Z,100253.81
2023-05-03T16:32:37.068Z,100255.66
2023-05-03T16:35:04.792Z,100263.78
2023-05-03T16:37:33.977Z,100267.13
2023-05-03T16:40:01.522Z,100268.81
2023-05-03T16:42:29.002Z,100264.19
2023-05-03T16:44:56.747Z,100261.84
2023-05-03T16:47:24.410Z,100256.97
2023-05-03T16:49:52.137Z,100259.44
2023-05-03T16:52:19.869Z,100253.78
2023-05-03T16:54:47.316Z,100257.00
2023-05-03T16:57:15.251Z,100257.31
2023-05-03T16:59:42.946Z,100257.25
2023-05-03T17:02:11.055Z,100257.63
2023-05-03T17:04:38.494Z,100264.03
2023-05-03T17:07:06.204Z,100263.56
2023-05-03T17:09:33.557Z,100260.78
2023-05-03T17:12:03.480Z,100266.88
2023-05-03T17:14:31.328Z,100265.19
2023-05-03T17:16:58.740Z,100267.19
2023-05-03T17:19:26.658Z,100271.37
2023-05-03T17:21:54.957Z,100271.13
2023-05-03T17:24:22.342Z,100268.50
2023-05-03T17:26:49.769Z,100269.50
2023-05-03T17:29:17.471Z,100272.09
2023-05-03T17:31:44.980Z,100273.12
2023-05-03T17:34:12.418Z,100273.78
2023-05-03T17:36:40.116Z,100280.25
2023-05-03T17:39:07.724Z,100274.87
2023-05-03T17:41:36.970Z,100277.66
2023-05-03T17:44:04.950Z,100270.69
2023-05-03T17:46:34.465Z,100281.31
2023-05-03T17:49:02.581Z,100280.50
2023-05-03T17:51:32.023Z,100281.75
2023-05-03T17:53:59.462Z,100287.69
2023-05-03T17:56:26.930Z,100289.66
2023-05-03T17:58:54.691Z,100292.16
2023-05-03T18:01:22.191Z,100290.66
2023-05-03T18:03:50.018Z,100293.69
2023-05-03T18:06:17.529Z,100296.78
2023-05-03T18:08:44.943Z,100304.22
2023-05-03T18:11:12.761Z,100300.66
2023-05-03T18:13:41.334Z,100305.06
2023-05-03T18:16:09.435Z,100314.72
2023-05-03T18:18:37.509Z,100307.56
2023-05-03T18:21:05.124Z,100305.44
2023-05-03T18:23:33.340Z,100312.38
2023-05-03T18:26:01.058Z,100319.78
2023-05-03T18:28:28.529Z,100321.38
2023-05-03T18:30:56.048Z,100316.94
2023-05-03T18:33:24.001Z,100324.13
2023-05-03T18:35:52.031Z,100315.34
2023-05-03T18:38:21.350Z,100322.63
2023-05-03T18:40:49.551Z,100320.25
2023-05-03T18:43:17.463Z,100329.06
2023-05-03T18:45:44.873Z,100334.34
2023-05-03T18:48:12.635Z,100333.47
2023-05-03T18:50:42.862Z,100329.94
2023-05-03T18:53:10.924Z,100334.63
2023-05-03T18:55:38.580Z,100332.00
2023-05-03T18:58:06.096Z,100327.16
2023-05-03T19:00:33.576Z,100336.88
2023-05-03T19:03:01.530Z,100338.94
2023-05-03T19:05:29.719Z,100337.25
2023-05-03T19:07:57.170Z,100340.97
2023-05-03T19:10:24.857Z,100341.91
2023-05-03T19:12:53.428Z,100348.66
2023-05-03T19:15:21.250Z,100349.50
2023-05-03T19:17:48.927Z,100351.00
2023-05-03T19:20:17.380Z,100349.66
2023-05-03T19:22:44.885Z,100351.31
2023-05-03T19:25:12.601Z,100362.44
2023-05-03T19:27:39.980Z,100358.97
2023-05-03T19:30:07.935Z,100367.53
2023-05-03T19:32:38.859Z,100375.50
2023-05-03T19:35:08.761Z,100370.16
2023-05-03T19:37:36.778Z,100364.97
2023-05-03T19:40:05.526Z,100380.66
2023-05-03T19:42:33.318Z,100370.09
2023-05-03T19:45:03.566Z,100383.28
2023-05-03T19:47:31.769Z,100381.56
2023-05-03T19:49:59.597Z,100379.59
2023-05-03T19:52:27.310Z,100387.53
2023-05-03T19:54:56.321Z,100392.81
2023-05-03T19:57:24.008Z,100385.78
2023-05-03T19:59:51.706Z,100387.00
2023-05-03T20:02:20.300Z,100385.81
2023-05-03T20:04:49.461Z,100385.00
2023-05-03T20:07:17.053Z,100389.53
2023-05-03T20:09:44.478Z,100390.56
2023-05-03T20:12:13.624Z,100395.94
2023-05-03T20:14:41.277Z,100406.09
2023-05-03T20:17:08.680Z,100402.69
2023-05-03T20:19:36.940Z,100404.34
2023-05-03T20:22:04.456Z,100405.06
2023-05-03T20:24:31.940Z,100410.37
2023-05-03T20:26:59.651Z,100411.19
2023-05-03T20:29:27.356Z,100413.72
2023-05-03T20:31:54.866Z,100413.97
2023-05-03T20:34:22.595Z,100419.81
2023-05-03T20:36:51.570Z,100429.31
2023-05-03T20:39:19.178Z,100430.34
2023-05-03T20:41:46.885Z,100423.66
2023-05-03T20:44:14.591Z,100427.16
2023-05-03T20:46:42.289Z,100431.38
2023-05-03T20:49:10.692Z,100430.69
2023-05-03T20:51:38.055Z,100432.59
2023-05-03T20:54:05.516Z,100436.31
2023-05-03T20:56:33.564Z,100428.31
2023-05-03T20:59:01.048Z,100430.91
2023-05-03T21:01:28.566Z,100432.53
2023-05-03T21:03:56.790Z,100437.97
2023-05-03T21:06:24.299Z,100430.78
2023-05-03T21:08:52.809Z,100443.22
2023-05-03T21:11:20.598Z,100436.53
2023-05-03T21:13:48.127Z,100432.91
2023-05-03T21:16:15.580Z,100433.84
2023-05-03T21:18:43.343Z,100431.41
2023-05-03T21:21:10.707Z,100424.63
2023-05-03T21:23:38.337Z,100428.47
2023-05-03T21:26:06.355Z,100430.22
2023-05-03T21:28:33.726Z,100422.31
2023-05-03T21:31:01.385Z,100423.34
2023-05-03T21:33:29.079Z,100429.50
2023-05-03T21:35:56.581Z,100431.09
2023-05-03T21:38:24.135Z,100434.94
2023-05-03T21:40:51.784Z,100428.69
2023-05-03T21:43:19.848Z,100433.75
2023-05-03T21:45:48.261Z,100437.25
2023-05-03T21:48:15.986Z,100437.34
2023-05-03T21:50:43.559Z,100437.34
2023-05-03T21:53:10.898Z,100433.94
2023-05-03T21:55:38.602Z,100433.87
2023-05-03T21:58:05.954Z,100434.19
2023-05-03T22:00:36.033Z,100438.44
2023-05-03T22:03:03.940Z,100439.41
2023-05-03T22:05:31.817Z,100441.09
2023-05-03T22:07:59.898Z,100439.34
2023-05-03T22:10:27.883Z,100437.69
2023-05-03T22:12:55.391Z,100440.13
2023-05-03T22:15:22.900Z,100434.31
2023-05-03T22:17:50.683Z,100431.59
2023-05-03T22:20:18.059Z,100439.59
2023-05-03T22:22:45.420Z,100432.56
2023-05-03T22:25:22.905Z,100431.75
2023-05-03T22:27:51.142Z,100430.88
2023-05-03T22:30:19.462Z,100429.94
2023-05-03T22:32:47.584Z,100418.03
2023-05-03T22:35:15.439Z,100422.28
2023-05-03T22:37:43.102Z,100423.91
2023-05-03T22:40:10.781Z,100418.72
2023-05-03T22:42:38.204Z,100415.38
2023-05-03T22:45:06.358Z,100411.16
2023-05-03T22:47:34.009Z,100405.06
2023-05-03T22:50:01.905Z,100413.81
2023-05-03T22:52:31.250Z,100411.06
2023-05-03T22:54:58.791Z,100407.84
2023-05-03T22:57:26.216Z,100407.19
2023-05-03T22:59:53.930Z,100408.22
2023-05-03T23:02:21.568Z,100412.56
2023-05-03T23:04:49.095Z,100412.47
2023-05-03T23:07:16.973Z,100410.84
2023-05-03T23:09:47.778Z,100403.00
2023-05-03T23:12:15.326Z,100401.19
2023-05-03T23:14:45.750Z,100404.50
2023-05-03T23:17:13.721Z,100394.09
2023-05-03T23:19:41.650Z,100394.19
2023-05-03T23:22:09.545Z,100391.50
2023-05-03T23:24:37.112Z,100397.91
2023-05-03T23:27:04.492Z,100393.44
2023-05-03T23:29:32.616Z,100386.47
2023-05-03T23:32:00.756Z,100387.44
2023-05-03T23:34:28.515Z,100384.69
2023-05-03T23:36:56.315Z,100386.47
2023-05-03T23:39:23.990Z,100380.34
2023-05-03T23:41:51.573Z,100379.69
2023-05-03T23:44:19.299Z,100381.34
2023-05-03T23:46:46.725Z,100383.06
2023-05-03T23:49:14.116Z,100381.34
2023-05-03T23:51:41.799Z,100378.72
2023-05-03T23:54:09.410Z,100370.78
2023-05-03T23:56:36.823Z,100364.78
2023-05-03T23:59:05.775Z,100363.72
